createdAt,value
2017-12-02T00:00:29.288Z,1020.39
2017-12-02T00:01:31.094Z,1020.34
2017-12-02T00:02:32.914Z,1020.34
2017-12-02T00:03:34.802Z,1020.33
2017-12-02T00:04:36.685Z,1020.38
2017-12-02T00:05:38.558Z,1020.33
2017-12-02T00:06:52.750Z,1020.36
2017-12-02T00:07:54.626Z,1020.37
2017-12-02T00:08:56.502Z,1020.39
2017-12-02T00:09:58.363Z,1020.39
2017-12-02T00:11:00.206Z,1020.44
2017-12-02T00:12:02.015Z,1020.42
2017-12-02T00:13:03.890Z,1020.43
2017-12-02T00:14:05.773Z,1020.40
2017-12-02T00:15:07.658Z,1020.43
2017-12-02T00:16:21.810Z,1020.46
2017-12-02T00:17:23.695Z,1020.47
2017-12-02T00:18:25.575Z,1020.46
2017-12-02T00:19:27.462Z,1020.45
2017-12-02T00:20:29.274Z,1020.49
2017-12-02T00:21:31.095Z,1020.46
2017-12-02T00:22:32.968Z,1020.47
2017-12-02T00:23:34.847Z,1020.47
2017-12-02T00:24:36.679Z,1020.43
2017-12-02T00:25:50.870Z,1020.46
2017-12-02T00:26:52.755Z,1020.41
2017-12-02T00:27:54.628Z,1020.44
2017-12-02T00:28:56.515Z,1020.44
2017-12-02T00:29:58.338Z,1020.46
2017-12-02T00:31:00.147Z,1020.48
2017-12-02T00:32:02.032Z,1020.53
2017-12-02T00:33:03.911Z,1020.50
2017-12-02T00:34:05.783Z,1020.50
2017-12-02T00:35:19.985Z,1020.50
2017-12-02T00:36:21.858Z,1020.53
2017-12-02T00:37:23.740Z,1020.56
2017-12-02T00:38:25.615Z,1020.57
2017-12-02T00:39:27.438Z,1020.56
2017-12-02T00:40:29.260Z,1020.56
2017-12-02T00:41:31.148Z,1020.59
2017-12-02T00:42:33.018Z,1020.56
2017-12-02T00:43:34.890Z,1020.61
2017-12-02T00:44:49.045Z,1020.65
2017-12-02T00:45:50.929Z,1020.64
2017-12-02T00:46:52.802Z,1020.61
2017-12-02T00:47:54.689Z,1020.62
2017-12-02T00:48:56.510Z,1020.63
2017-12-02T00:49:58.330Z,1020.65
2017-12-02T00:51:00.229Z,1020.71
2017-12-02T00:52:02.082Z,1020.69
2017-12-02T00:53:04.014Z,1020.66
2017-12-02T00:54:18.097Z,1020.72
2017-12-02T00:55:19.981Z,1020.68
2017-12-02T00:56:21.865Z,1020.72
2017-12-02T00:57:23.751Z,1020.74
2017-12-02T00:58:25.573Z,1020.74
2017-12-02T00:59:27.384Z,1020.74
2017-12-02T01:00:29.270Z,1020.80
2017-12-02T01:01:31.153Z,1020.80
2017-12-02T01:02:33.027Z,1020.83
2017-12-02T01:03:47.182Z,1020.82
2017-12-02T01:04:49.068Z,1020.89
2017-12-02T01:05:50.951Z,1020.86
2017-12-02T01:06:52.826Z,1020.89
2017-12-02T01:07:54.649Z,1020.90
2017-12-02T01:08:56.461Z,1020.90
2017-12-02T01:09:58.335Z,1020.91
2017-12-02T01:11:00.180Z,1020.96
2017-12-02T01:12:02.027Z,1020.95
2017-12-02T01:13:16.181Z,1020.97
2017-12-02T01:14:18.065Z,1020.95
2017-12-02T01:15:19.939Z,1020.94
2017-12-02T01:16:21.813Z,1020.93
2017-12-02T01:17:23.635Z,1020.91
2017-12-02T01:18:25.458Z,1020.89
2017-12-02T01:19:27.337Z,1020.94
2017-12-02T01:20:29.227Z,1020.96
2017-12-02T01:21:31.091Z,1020.98
2017-12-02T01:22:45.244Z,1021.02
2017-12-02T01:23:47.116Z,1021.01
2017-12-02T01:24:48.992Z,1020.99
2017-12-02T01:25:50.877Z,1020.99
2017-12-02T01:26:52.697Z,1021.01
2017-12-02T01:27:54.528Z,1020.99
2017-12-02T01:28:56.390Z,1021.02
2017-12-02T01:29:58.274Z,1021.07
2017-12-02T01:31:00.156Z,1021.10
2017-12-02T01:32:14.308Z,1021.05
2017-12-02T01:33:16.195Z,1021.10
2017-12-02T01:34:18.078Z,1021.08
2017-12-02T01:35:19.954Z,1021.12
2017-12-02T01:36:21.776Z,1021.16
2017-12-02T01:37:23.587Z,1021.13
2017-12-02T01:38:25.477Z,1021.13
2017-12-02T01:39:27.360Z,1021.14
2017-12-02T01:40:29.232Z,1021.16
2017-12-02T01:41:43.375Z,1021.17
2017-12-02T01:42:45.248Z,1021.19
2017-12-02T01:43:47.132Z,1021.19
2017-12-02T01:44:49.019Z,1021.19
2017-12-02T01:45:50.841Z,1021.19
2017-12-02T01:46:52.662Z,1021.23
2017-12-02T01:47:54.535Z,1021.22
2017-12-02T01:48:56.419Z,1021.15
2017-12-02T01:49:58.290Z,1021.18
2017-12-02T01:51:12.446Z,1021.20
2017-12-02T01:52:14.330Z,1021.23
2017-12-02T01:53:16.213Z,1021.22
2017-12-02T01:54:18.088Z,1021.24
2017-12-02T01:55:19.909Z,1021.26
2017-12-02T01:56:21.732Z,1021.28
2017-12-02T01:57:23.606Z,1021.26
2017-12-02T01:58:25.478Z,1021.24
2017-12-02T01:59:27.352Z,1021.29
2017-12-02T02:00:41.514Z,1021.30
2017-12-02T02:01:43.399Z,1021.28
2017-12-02T02:02:45.281Z,1021.33
2017-12-02T02:03:47.168Z,1021.35
2017-12-02T02:04:48.982Z,1021.37
2017-12-02T02:05:50.804Z,1021.36
2017-12-02T02:06:52.679Z,1021.41
2017-12-02T02:07:54.561Z,1021.42
2017-12-02T02:08:56.443Z,1021.41
2017-12-02T02:10:10.650Z,1021.45
2017-12-02T02:11:12.536Z,1021.43
2017-12-02T02:12:14.403Z,1021.42
2017-12-02T02:13:16.293Z,1021.46
2017-12-02T02:14:18.109Z,1021.47
2017-12-02T02:15:19.922Z,1021.45
2017-12-02T02:16:21.807Z,1021.49
2017-12-02T02:17:23.695Z,1021.48
2017-12-02T02:18:25.573Z,1021.49
2017-12-02T02:19:39.779Z,1021.50
2017-12-02T02:20:41.658Z,1021.51
2017-12-02T02:21:43.543Z,1021.53
2017-12-02T02:22:45.430Z,1021.53
2017-12-02T02:23:47.244Z,1021.55
2017-12-02T02:24:49.068Z,1021.58
2017-12-02T02:25:50.959Z,1021.55
2017-12-02T02:26:52.833Z,1021.57
2017-12-02T02:27:54.718Z,1021.61
2017-12-02T02:29:08.919Z,1021.61
2017-12-02T02:30:10.793Z,1021.66
2017-12-02T02:31:12.677Z,1021.63
2017-12-02T02:32:14.565Z,1021.65
2017-12-02T02:33:16.380Z,1021.64
2017-12-02T02:34:18.193Z,1021.68
2017-12-02T02:35:20.081Z,1021.67
2017-12-02T02:36:21.970Z,1021.66
2017-12-02T02:37:23.847Z,1021.68
2017-12-02T02:38:38.045Z,1021.68
2017-12-02T02:39:39.923Z,1021.68
2017-12-02T02:40:41.799Z,1021.68
2017-12-02T02:41:43.674Z,1021.67
2017-12-02T02:42:45.497Z,1021.66
2017-12-02T02:43:47.310Z,1021.67
2017-12-02T02:44:49.197Z,1021.71
2017-12-02T02:45:51.076Z,1021.69
2017-12-02T02:46:52.964Z,1021.68
2017-12-02T02:48:07.122Z,1021.71
2017-12-02T02:49:08.999Z,1021.71
2017-12-02T02:50:10.884Z,1021.78
2017-12-02T02:51:12.751Z,1021.79
2017-12-02T02:52:14.576Z,1021.77
2017-12-02T02:53:16.387Z,1021.81
2017-12-02T02:54:18.273Z,1021.80
2017-12-02T02:55:20.151Z,1021.78
2017-12-02T02:56:22.037Z,1021.84
2017-12-02T02:57:36.193Z,1021.80
2017-12-02T02:58:38.071Z,1021.81
2017-12-02T02:59:39.958Z,1021.81
2017-12-02T03:00:41.845Z,1021.81
2017-12-02T03:01:43.669Z,1021.81
2017-12-02T03:02:45.492Z,1021.85
2017-12-02T03:03:47.374Z,1021.79
2017-12-02T03:04:49.262Z,1021.79
2017-12-02T03:05:51.150Z,1021.77
2017-12-02T03:07:05.305Z,1021.82
2017-12-02T03:08:07.194Z,1021.82
2017-12-02T03:09:09.070Z,1021.82
2017-12-02T03:10:10.958Z,1021.82
2017-12-02T03:11:12.773Z,1021.83
2017-12-02T03:12:14.597Z,1021.80
2017-12-02T03:13:16.475Z,1021.83
2017-12-02T03:14:18.352Z,1021.79
2017-12-02T03:15:20.230Z,1021.80
2017-12-02T03:16:34.435Z,1021.81
2017-12-02T03:17:36.313Z,1021.85
2017-12-02T03:18:38.227Z,1021.84
2017-12-02T03:19:40.076Z,1021.86
2017-12-02T03:20:41.900Z,1021.89
2017-12-02T03:21:43.725Z,1021.93
2017-12-02T03:22:45.602Z,1021.90
2017-12-02T03:23:47.486Z,1021.94
2017-12-02T03:24:49.357Z,1021.90
2017-12-02T03:26:03.519Z,1021.92
2017-12-02T03:27:05.392Z,1021.88
2017-12-02T03:28:07.277Z,1021.89
2017-12-02T03:29:09.164Z,1021.92
2017-12-02T03:30:10.992Z,1021.92
2017-12-02T03:31:12.805Z,1021.92
2017-12-02T03:32:14.680Z,1021.94
2017-12-02T03:33:16.567Z,1021.92
2017-12-02T03:34:18.447Z,1021.91
2017-12-02T03:35:32.593Z,1021.97
2017-12-02T03:36:34.470Z,1021.99
2017-12-02T03:37:36.355Z,1022.05
2017-12-02T03:38:38.231Z,1022.00
2017-12-02T03:39:40.054Z,1022.02
2017-12-02T03:40:41.879Z,1022.01
2017-12-02T03:41:43.753Z,1022.09
2017-12-02T03:42:45.640Z,1022.08
2017-12-02T03:43:47.529Z,1022.04
2017-12-02T03:45:01.676Z,1022.06
2017-12-02T03:46:03.552Z,1022.05
2017-12-02T03:47:05.429Z,1022.04
2017-12-02T03:48:07.303Z,1022.03
2017-12-02T03:49:09.128Z,1022.05
2017-12-02T03:50:10.951Z,1022.05
2017-12-02T03:51:12.826Z,1022.05
2017-12-02T03:52:14.706Z,1022.05
2017-12-02T03:53:16.601Z,1022.05
2017-12-02T03:54:30.794Z,1022.07
2017-12-02T03:55:32.670Z,1022.04
2017-12-02T03:56:34.554Z,1022.05
2017-12-02T03:57:36.442Z,1022.04
2017-12-02T03:58:38.256Z,1022.05
2017-12-02T03:59:40.070Z,1022.07
2017-12-02T04:00:41.945Z,1022.09
2017-12-02T04:01:43.832Z,1022.13
2017-12-02T04:02:45.725Z,1022.14
2017-12-02T04:03:59.916Z,1022.17
2017-12-02T04:05:01.793Z,1022.21
2017-12-02T04:06:03.677Z,1022.21
2017-12-02T04:07:05.553Z,1022.21
2017-12-02T04:08:07.376Z,1022.23
2017-12-02T04:09:09.187Z,1022.22
2017-12-02T04:10:11.080Z,1022.21
2017-12-02T04:11:12.952Z,1022.17
2017-12-02T04:12:14.829Z,1022.23
2017-12-02T04:13:29.027Z,1022.15
2017-12-02T04:14:30.903Z,1022.16
2017-12-02T04:15:32.779Z,1022.15
2017-12-02T04:16:34.661Z,1022.17
2017-12-02T04:17:36.467Z,1022.20
2017-12-02T04:18:38.290Z,1022.24
2017-12-02T04:19:40.112Z,1022.22
2017-12-02T04:20:41.926Z,1022.23
2017-12-02T04:21:43.742Z,1022.25
2017-12-02T04:22:57.887Z,1022.25
2017-12-02T04:23:59.777Z,1022.28
2017-12-02T04:25:01.651Z,1022.32
2017-12-02T04:26:03.528Z,1022.33
2017-12-02T04:27:05.352Z,1022.34
2017-12-02T04:28:07.176Z,1022.33
2017-12-02T04:29:09.054Z,1022.33
2017-12-02T04:30:10.929Z,1022.34
2017-12-02T04:31:12.808Z,1022.36
2017-12-02T04:32:27.003Z,1022.37
2017-12-02T04:33:28.878Z,1022.38
2017-12-02T04:34:30.762Z,1022.39
2017-12-02T04:35:32.649Z,1022.40
2017-12-02T04:36:34.468Z,1022.41
2017-12-02T04:37:36.280Z,1022.42
2017-12-02T04:38:38.170Z,1022.44
2017-12-02T04:39:40.058Z,1022.44
2017-12-02T04:40:41.947Z,1022.45
2017-12-02T04:41:56.094Z,1022.45
2017-12-02T04:42:57.981Z,1022.47
2017-12-02T04:43:59.871Z,1022.42
2017-12-02T04:45:01.748Z,1022.46
2017-12-02T04:46:03.571Z,1022.44
2017-12-02T04:47:05.391Z,1022.46
2017-12-02T04:48:07.278Z,1022.47
2017-12-02T04:49:09.158Z,1022.47
2017-12-02T04:50:11.045Z,1022.55
2017-12-02T04:51:25.201Z,1022.54
2017-12-02T04:52:27.077Z,1022.56
2017-12-02T04:53:28.961Z,1022.57
2017-12-02T04:54:30.836Z,1022.57
2017-12-02T04:55:32.653Z,1022.55
2017-12-02T04:56:34.466Z,1022.56
2017-12-02T04:57:36.413Z,1022.55
2017-12-02T04:58:38.233Z,1022.59
2017-12-02T04:59:40.120Z,1022.55
2017-12-02T05:00:54.497Z,1022.54
2017-12-02T05:01:56.555Z,1022.54
2017-12-02T05:02:58.647Z,1022.55
2017-12-02T05:04:00.652Z,1022.53
2017-12-02T05:05:02.533Z,1022.54
2017-12-02T05:06:04.533Z,1022.57
2017-12-02T05:07:06.606Z,1022.58
2017-12-02T05:08:08.678Z,1022.59
2017-12-02T05:09:10.621Z,1022.56
2017-12-02T05:10:24.763Z,1022.57
2017-12-02T05:11:26.653Z,1022.58
2017-12-02T05:12:28.538Z,1022.57
2017-12-02T05:13:30.424Z,1022.55
2017-12-02T05:14:32.245Z,1022.59
2017-12-02T05:15:34.051Z,1022.62
2017-12-02T05:16:35.926Z,1022.66
2017-12-02T05:17:37.814Z,1022.63
2017-12-02T05:18:39.693Z,1022.64
2017-12-02T05:19:53.899Z,1022.60
2017-12-02T05:20:55.788Z,1022.61
2017-12-02T05:21:57.662Z,1022.64
2017-12-02T05:22:59.548Z,1022.68
2017-12-02T05:24:01.371Z,1022.68
2017-12-02T05:25:03.196Z,1022.71
2017-12-02T05:26:05.080Z,1022.69
2017-12-02T05:27:06.958Z,1022.67
2017-12-02T05:28:08.845Z,1022.67
2017-12-02T05:29:23.051Z,1022.67
2017-12-02T05:30:24.931Z,1022.67
2017-12-02T05:31:26.804Z,1022.70
2017-12-02T05:32:28.678Z,1022.71
2017-12-02T05:33:30.499Z,1022.75
2017-12-02T05:34:32.324Z,1022.69
2017-12-02T05:35:34.210Z,1022.72
2017-12-02T05:36:36.089Z,1022.73
2017-12-02T05:37:37.963Z,1022.74
2017-12-02T05:38:52.120Z,1022.75
2017-12-02T05:39:54.007Z,1022.75
2017-12-02T05:40:55.890Z,1022.80
2017-12-02T05:41:57.779Z,1022.80
2017-12-02T05:42:59.601Z,1022.82
2017-12-02T05:44:01.414Z,1022.86
2017-12-02T05:45:03.301Z,1022.88
2017-12-02T05:46:05.177Z,1022.88
2017-12-02T05:47:07.066Z,1022.87
2017-12-02T05:48:21.208Z,1022.91
2017-12-02T05:49:23.096Z,1022.91
2017-12-02T05:50:24.980Z,1022.92
2017-12-02T05:51:26.866Z,1022.91
2017-12-02T05:52:28.689Z,1022.91
2017-12-02T05:53:30.510Z,1022.92
2017-12-02T05:54:32.395Z,1022.94
2017-12-02T05:55:34.272Z,1022.90
2017-12-02T05:56:36.157Z,1022.97
2017-12-02T05:57:50.314Z,1022.99
2017-12-02T05:58:52.189Z,1023.00
2017-12-02T05:59:54.065Z,1023.05
2017-12-02T06:00:55.951Z,1023.05
2017-12-02T06:01:57.778Z,1023.08
2017-12-02T06:02:59.589Z,1023.08
2017-12-02T06:04:01.475Z,1023.05
2017-12-02T06:05:03.363Z,1023.07
2017-12-02T06:06:05.251Z,1023.10
2017-12-02T06:07:19.396Z,1023.13
2017-12-02T06:08:21.285Z,1023.15
2017-12-02T06:09:23.170Z,1023.15
2017-12-02T06:10:25.057Z,1023.14
2017-12-02T06:11:26.881Z,1023.16
2017-12-02T06:12:28.703Z,1023.14
2017-12-02T06:13:30.590Z,1023.18
2017-12-02T06:14:32.470Z,1023.15
2017-12-02T06:15:34.351Z,1023.14
2017-12-02T06:16:48.506Z,1023.20
2017-12-02T06:17:50.395Z,1023.19
2017-12-02T06:18:52.279Z,1023.17
2017-12-02T06:19:54.165Z,1023.23
2017-12-02T06:20:55.988Z,1023.19
2017-12-02T06:21:57.801Z,1023.16
2017-12-02T06:22:59.677Z,1023.17
2017-12-02T06:24:01.555Z,1023.15
2017-12-02T06:25:03.439Z,1023.17
2017-12-02T06:26:17.583Z,1023.17
2017-12-02T06:27:19.473Z,1023.15
2017-12-02T06:28:21.351Z,1023.17
2017-12-02T06:29:23.231Z,1023.16
2017-12-02T06:30:25.057Z,1023.16
2017-12-02T06:31:26.884Z,1023.15
2017-12-02T06:32:28.760Z,1023.16
2017-12-02T06:33:30.650Z,1023.18
2017-12-02T06:34:32.540Z,1023.18
2017-12-02T06:35:46.744Z,1023.18
2017-12-02T06:36:48.625Z,1023.21
2017-12-02T06:37:50.510Z,1023.24
2017-12-02T06:38:52.392Z,1023.26
2017-12-02T06:39:54.210Z,1023.31
2017-12-02T06:40:56.027Z,1023.34
2017-12-02T06:41:57.904Z,1023.32
2017-12-02T06:42:59.792Z,1023.29
2017-12-02T06:44:01.680Z,1023.27
2017-12-02T06:45:15.848Z,1023.31
2017-12-02T06:46:17.728Z,1023.33
2017-12-02T06:47:19.616Z,1023.33
2017-12-02T06:48:21.495Z,1023.33
2017-12-02T06:49:23.322Z,1023.32
2017-12-02T06:50:25.136Z,1023.36
2017-12-02T06:51:27.014Z,1023.35
2017-12-02T06:52:28.904Z,1023.36
2017-12-02T06:53:30.791Z,1023.40
2017-12-02T06:54:44.993Z,1023.39
2017-12-02T06:55:46.873Z,1023.43
2017-12-02T06:56:48.763Z,1023.47
2017-12-02T06:57:50.643Z,1023.48
2017-12-02T06:58:52.460Z,1023.49
2017-12-02T06:59:54.273Z,1023.51
2017-12-02T07:00:56.153Z,1023.54
2017-12-02T07:01:58.046Z,1023.53
2017-12-02T07:02:59.937Z,1023.53
2017-12-02T07:04:14.089Z,1023.51
2017-12-02T07:05:15.981Z,1023.48
2017-12-02T07:06:17.857Z,1023.50
2017-12-02T07:07:19.748Z,1023.53
2017-12-02T07:08:21.564Z,1023.54
2017-12-02T07:09:23.381Z,1023.55
2017-12-02T07:10:25.274Z,1023.55
2017-12-02T07:11:27.156Z,1023.55
2017-12-02T07:12:29.034Z,1023.55
2017-12-02T07:13:43.193Z,1023.56
2017-12-02T07:14:45.103Z,1023.53
2017-12-02T07:15:46.953Z,1023.55
2017-12-02T07:16:48.845Z,1023.55
2017-12-02T07:17:50.674Z,1023.50
2017-12-02T07:18:52.500Z,1023.55
2017-12-02T07:19:54.379Z,1023.52
2017-12-02T07:20:56.272Z,1023.52
2017-12-02T07:21:58.164Z,1023.60
2017-12-02T07:23:12.323Z,1023.59
2017-12-02T07:24:14.203Z,1023.57
2017-12-02T07:25:16.094Z,1023.63
2017-12-02T07:26:17.984Z,1023.62
2017-12-02T07:27:19.799Z,1023.65
2017-12-02T07:28:21.627Z,1023.65
2017-12-02T07:29:23.508Z,1023.72
2017-12-02T07:30:25.389Z,1023.69
2017-12-02T07:31:27.279Z,1023.70
2017-12-02T07:32:41.437Z,1023.72
2017-12-02T07:33:43.333Z,1023.78
2017-12-02T07:34:45.207Z,1023.74
2017-12-02T07:35:47.120Z,1023.79
2017-12-02T07:36:48.941Z,1023.77
2017-12-02T07:37:50.769Z,1023.78
2017-12-02T07:38:52.652Z,1023.78
2017-12-02T07:39:54.543Z,1023.78
2017-12-02T07:40:56.434Z,1023.81
2017-12-02T07:42:10.594Z,1023.80
2017-12-02T07:43:12.486Z,1023.80
2017-12-02T07:44:14.374Z,1023.82
2017-12-02T07:45:16.305Z,1023.84
2017-12-02T07:46:18.071Z,1023.84
2017-12-02T07:47:19.886Z,1023.84
2017-12-02T07:48:21.778Z,1023.86
2017-12-02T07:49:23.664Z,1023.86
2017-12-02T07:50:25.542Z,1023.85
2017-12-02T07:51:39.788Z,1023.88
2017-12-02T07:52:41.708Z,1023.89
2017-12-02T07:53:43.609Z,1023.91
2017-12-02T07:54:45.484Z,1023.95
2017-12-02T07:55:47.301Z,1023.98
2017-12-02T07:56:49.141Z,1024.00
2017-12-02T07:57:51.021Z,1023.98
2017-12-02T07:58:52.897Z,1023.99
2017-12-02T07:59:54.794Z,1024.00
2017-12-02T08:01:08.948Z,1023.99
2017-12-02T08:02:10.833Z,1024.01
2017-12-02T08:03:12.714Z,1024.03
2017-12-02T08:04:14.608Z,1024.04
2017-12-02T08:05:16.425Z,1024.08
2017-12-02T08:06:18.253Z,1024.10
2017-12-02T08:07:20.132Z,1024.09
2017-12-02T08:08:22.015Z,1024.11
2017-12-02T08:09:23.904Z,1024.10
2017-12-02T08:10:38.065Z,1024.04
2017-12-02T08:11:39.958Z,1024.10
2017-12-02T08:12:41.847Z,1024.07
2017-12-02T08:13:43.736Z,1024.08
2017-12-02T08:14:45.564Z,1024.07
2017-12-02T08:15:47.391Z,1024.04
2017-12-02T08:16:49.284Z,1024.04
2017-12-02T08:17:51.177Z,1024.10
2017-12-02T08:18:53.072Z,1024.09
2017-12-02T08:20:07.232Z,1024.12
2017-12-02T08:21:09.115Z,1024.08
2017-12-02T08:22:11.006Z,1024.07
2017-12-02T08:23:12.887Z,1024.10
2017-12-02T08:24:14.718Z,1024.12
2017-12-02T08:25:16.541Z,1024.11
2017-12-02T08:26:18.436Z,1024.13
2017-12-02T08:27:20.303Z,1024.18
2017-12-02T08:28:22.186Z,1024.16
2017-12-02T08:29:36.337Z,1024.14
2017-12-02T08:30:38.226Z,1024.14
2017-12-02T08:31:40.104Z,1024.15
2017-12-02T08:32:41.998Z,1024.15
2017-12-02T08:33:43.825Z,1024.16
2017-12-02T08:34:45.652Z,1024.16
2017-12-02T08:35:47.543Z,1024.17
2017-12-02T08:36:49.436Z,1024.19
2017-12-02T08:37:51.327Z,1024.19
2017-12-02T08:39:05.488Z,1024.25
2017-12-02T08:40:07.388Z,1024.28
2017-12-02T08:41:09.264Z,1024.30
2017-12-02T08:42:11.156Z,1024.28
2017-12-02T08:43:12.986Z,1024.27
2017-12-02T08:44:14.816Z,1024.34
2017-12-02T08:45:16.695Z,1024.34
2017-12-02T08:46:18.576Z,1024.35
2017-12-02T08:47:20.471Z,1024.38
2017-12-02T08:48:34.643Z,1024.37
2017-12-02T08:49:36.507Z,1024.39
2017-12-02T08:50:38.399Z,1024.40
2017-12-02T08:51:40.291Z,1024.39
2017-12-02T08:52:42.117Z,1024.44
2017-12-02T08:53:43.946Z,1024.45
2017-12-02T08:54:45.828Z,1024.51
2017-12-02T08:55:47.720Z,1024.46
2017-12-02T08:56:49.614Z,1024.47
2017-12-02T08:58:03.814Z,1024.47
2017-12-02T08:59:05.709Z,1024.53
2017-12-02T09:00:07.589Z,1024.52
2017-12-02T09:01:09.480Z,1024.54
2017-12-02T09:02:11.305Z,1024.58
2017-12-02T09:03:13.521Z,1024.60
2017-12-02T09:04:15.745Z,1024.58
2017-12-02T09:05:17.618Z,1024.62
2017-12-02T09:06:19.525Z,1024.63
2017-12-02T09:07:33.685Z,1024.62
2017-12-02T09:08:35.595Z,1024.65
2017-12-02T09:09:37.830Z,1024.68
2017-12-02T09:10:40.097Z,1024.70
2017-12-02T09:11:41.936Z,1024.69
2017-12-02T09:12:44.065Z,1024.69
2017-12-02T09:13:45.963Z,1024.73
2017-12-02T09:14:47.855Z,1024.71
2017-12-02T09:15:49.748Z,1024.72
2017-12-02T09:17:04.328Z,1024.72
2017-12-02T09:18:06.609Z,1024.76
2017-12-02T09:19:08.519Z,1024.77
2017-12-02T09:20:10.430Z,1024.80
2017-12-02T09:21:12.261Z,1024.77
2017-12-02T09:22:14.081Z,1024.81
2017-12-02T09:23:15.962Z,1024.78
2017-12-02T09:24:17.855Z,1024.83
2017-12-02T09:25:19.747Z,1024.81
2017-12-02T09:26:33.917Z,1024.80
2017-12-02T09:27:35.810Z,1024.82
2017-12-02T09:28:37.692Z,1024.85
2017-12-02T09:29:39.583Z,1024.88
2017-12-02T09:30:41.412Z,1024.80
2017-12-02T09:31:43.242Z,1024.87
2017-12-02T09:32:45.124Z,1024.88
2017-12-02T09:33:47.007Z,1024.85
2017-12-02T09:34:48.900Z,1024.85
2017-12-02T09:36:03.052Z,1024.86
2017-12-02T09:37:04.934Z,1024.85
2017-12-02T09:38:06.833Z,1024.86
2017-12-02T09:39:08.715Z,1024.85
2017-12-02T09:40:10.548Z,1024.86
2017-12-02T09:41:12.376Z,1024.85
2017-12-02T09:42:14.270Z,1024.83
2017-12-02T09:43:16.162Z,1024.87
2017-12-02T09:44:18.057Z,1024.86
2017-12-02T09:45:32.241Z,1024.88
2017-12-02T09:46:34.123Z,1024.85
2017-12-02T09:47:36.056Z,1024.87
2017-12-02T09:48:38.223Z,1024.89
2017-12-02T09:49:40.404Z,1024.91
2017-12-02T09:50:42.247Z,1024.91
2017-12-02T09:51:44.145Z,1024.92
2017-12-02T09:52:46.030Z,1024.90
2017-12-02T09:53:47.912Z,1024.85
2017-12-02T09:55:02.078Z,1024.88
2017-12-02T09:56:03.964Z,1024.85
2017-12-02T09:57:05.841Z,1024.84
2017-12-02T09:58:07.843Z,1024.86
2017-12-02T09:59:09.748Z,1024.87
2017-12-02T10:00:11.894Z,1024.86
2017-12-02T10:01:14.540Z,1024.88
2017-12-02T10:02:16.420Z,1024.84
2017-12-02T10:03:18.309Z,1024.87
2017-12-02T10:04:32.841Z,1024.83
2017-12-02T10:05:34.689Z,1024.79
2017-12-02T10:06:36.582Z,1024.83
2017-12-02T10:07:38.474Z,1024.78
2017-12-02T10:08:40.306Z,1024.79
2017-12-02T10:09:42.128Z,1024.76
2017-12-02T10:10:44.009Z,1024.85
2017-12-02T10:11:45.906Z,1024.85
2017-12-02T10:12:47.802Z,1024.81
2017-12-02T10:14:02.078Z,1024.88
2017-12-02T10:15:04.398Z,1024.87
2017-12-02T10:16:06.312Z,1024.87
2017-12-02T10:17:08.197Z,1024.85
2017-12-02T10:18:10.039Z,1024.82
2017-12-02T10:19:11.880Z,1024.83
2017-12-02T10:20:13.737Z,1024.79
2017-12-02T10:21:15.637Z,1024.78
2017-12-02T10:22:17.522Z,1024.76
2017-12-02T10:23:31.735Z,1024.77
2017-12-02T10:24:33.642Z,1024.75
2017-12-02T10:25:35.541Z,1024.80
2017-12-02T10:26:37.459Z,1024.76
2017-12-02T10:27:39.589Z,1024.76
2017-12-02T10:28:41.375Z,1024.72
2017-12-02T10:29:43.327Z,1024.71
2017-12-02T10:30:45.221Z,1024.74
2017-12-02T10:31:47.121Z,1024.77
2017-12-02T10:33:01.273Z,1024.76
2017-12-02T10:34:03.174Z,1024.75
2017-12-02T10:35:05.045Z,1024.70
2017-12-02T10:36:06.924Z,1024.73
2017-12-02T10:37:08.747Z,1024.69
2017-12-02T10:38:10.568Z,1024.68
2017-12-02T10:39:12.462Z,1024.69
2017-12-02T10:40:14.359Z,1024.71
2017-12-02T10:41:16.260Z,1024.72
2017-12-02T10:42:30.407Z,1024.69
2017-12-02T10:43:32.306Z,1024.68
2017-12-02T10:44:34.188Z,1024.67
2017-12-02T10:45:36.100Z,1024.69
2017-12-02T10:46:37.909Z,1024.66
2017-12-02T10:47:39.730Z,1024.67
2017-12-02T10:48:41.955Z,1024.66
2017-12-02T10:49:43.835Z,1024.67
2017-12-02T10:50:45.717Z,1024.61
2017-12-02T10:51:59.881Z,1024.61
2017-12-02T10:53:01.782Z,1024.59
2017-12-02T10:54:04.004Z,1024.56
2017-12-02T10:55:05.851Z,1024.57
2017-12-02T10:56:07.684Z,1024.58
2017-12-02T10:57:09.505Z,1024.58
2017-12-02T10:58:11.400Z,1024.56
2017-12-02T10:59:13.289Z,1024.51
2017-12-02T11:00:15.175Z,1024.52
2017-12-02T11:01:29.329Z,1024.56
2017-12-02T11:02:31.229Z,1024.60
2017-12-02T11:03:33.110Z,1024.54
2017-12-02T11:04:34.995Z,1024.55
2017-12-02T11:05:36.829Z,1024.60
2017-12-02T11:06:38.634Z,1024.58
2017-12-02T11:07:40.518Z,1024.57
2017-12-02T11:08:42.404Z,1024.53
2017-12-02T11:09:44.299Z,1024.55
2017-12-02T11:10:58.444Z,1024.51
2017-12-02T11:12:00.330Z,1024.50
2017-12-02T11:13:02.619Z,1024.50
2017-12-02T11:14:04.498Z,1024.53
2017-12-02T11:15:06.329Z,1024.51
2017-12-02T11:16:08.148Z,1024.56
2017-12-02T11:17:10.039Z,1024.54
2017-12-02T11:18:11.937Z,1024.54
2017-12-02T11:19:13.822Z,1024.50
2017-12-02T11:20:28.530Z,1024.50
2017-12-02T11:21:30.466Z,1024.52
2017-12-02T11:22:32.325Z,1024.55
2017-12-02T11:23:34.207Z,1024.54
2017-12-02T11:24:36.038Z,1024.49
2017-12-02T11:25:37.863Z,1024.51
2017-12-02T11:26:39.738Z,1024.47
2017-12-02T11:27:41.631Z,1024.46
2017-12-02T11:28:43.526Z,1024.45
2017-12-02T11:29:57.686Z,1024.43
2017-12-02T11:30:59.972Z,1024.47
2017-12-02T11:32:01.820Z,1024.48
2017-12-02T11:33:03.702Z,1024.47
2017-12-02T11:34:05.524Z,1024.51
2017-12-02T11:35:07.336Z,1024.52
2017-12-02T11:36:09.248Z,1024.52
2017-12-02T11:37:11.132Z,1024.54
2017-12-02T11:38:13.015Z,1024.54
2017-12-02T11:39:27.702Z,1024.54
2017-12-02T11:40:30.215Z,1024.57
2017-12-02T11:41:32.440Z,1024.56
2017-12-02T11:42:34.848Z,1024.61
2017-12-02T11:43:36.657Z,1024.60
2017-12-02T11:44:38.499Z,1024.57
2017-12-02T11:45:40.371Z,1024.55
2017-12-02T11:46:42.269Z,1024.59
2017-12-02T11:47:44.351Z,1024.58
2017-12-02T11:48:58.504Z,1024.57
2017-12-02T11:50:00.430Z,1024.53
2017-12-02T11:51:02.310Z,1024.56
2017-12-02T11:52:04.192Z,1024.56
2017-12-02T11:53:06.018Z,1024.55
2017-12-02T11:54:07.838Z,1024.53
2017-12-02T11:55:09.718Z,1024.56
2017-12-02T11:56:11.612Z,1024.57
2017-12-02T11:57:13.581Z,1024.56
2017-12-02T11:58:27.793Z,1024.55
2017-12-02T11:59:29.679Z,1024.51
2017-12-02T12:00:31.562Z,1024.53
2017-12-02T12:01:33.451Z,1024.49
2017-12-02T12:02:35.273Z,1024.51
2017-12-02T12:03:37.109Z,1024.51
2017-12-02T12:04:38.991Z,1024.44
2017-12-02T12:05:40.879Z,1024.50
2017-12-02T12:06:42.782Z,1024.49
2017-12-02T12:07:56.945Z,1024.52
2017-12-02T12:08:58.878Z,1024.52
2017-12-02T12:10:00.840Z,1024.49
2017-12-02T12:11:02.722Z,1024.45
2017-12-02T12:12:04.554Z,1024.47
2017-12-02T12:13:06.413Z,1024.48
2017-12-02T12:14:08.296Z,1024.47
2017-12-02T12:15:10.394Z,1024.49
2017-12-02T12:16:12.275Z,1024.46
2017-12-02T12:17:26.428Z,1024.44
2017-12-02T12:18:28.314Z,1024.39
2017-12-02T12:19:30.558Z,1024.38
2017-12-02T12:20:32.753Z,1024.40
2017-12-02T12:21:34.884Z,1024.37
2017-12-02T12:22:36.667Z,1024.35
2017-12-02T12:23:38.596Z,1024.40
2017-12-02T12:24:40.773Z,1024.39
2017-12-02T12:25:42.623Z,1024.41
2017-12-02T12:26:56.819Z,1024.40
2017-12-02T12:27:58.700Z,1024.36
2017-12-02T12:29:00.596Z,1024.38
2017-12-02T12:30:02.476Z,1024.41
2017-12-02T12:31:04.512Z,1024.32
2017-12-02T12:32:06.516Z,1024.36
2017-12-02T12:33:08.402Z,1024.36
2017-12-02T12:34:10.329Z,1024.38
2017-12-02T12:35:12.224Z,1024.38
2017-12-02T12:36:26.421Z,1024.41
2017-12-02T12:37:28.606Z,1024.40
2017-12-02T12:38:30.577Z,1024.39
2017-12-02T12:39:32.470Z,1024.39
2017-12-02T12:40:34.289Z,1024.38
2017-12-02T12:41:36.116Z,1024.38
2017-12-02T12:42:38.025Z,1024.38
2017-12-02T12:43:39.893Z,1024.38
2017-12-02T12:44:41.825Z,1024.36